Time;durP1;ratioP1;P1;durP2;ratioP2;P2;SDS_P1;SDS_P2;PMS_P1;PMS_P2;Temp;Humidity;BMP_temperature;BMP_pressure;BME280_temperature;BME280_humidity;BME280_pressure;Samples;Min_cycle;Max_cycle;Signal;HPM_P1;HPM_P2
2021/11/09 00:01:21;;;;;;;;;;;23.00;47.10;;;;;;1554085;75;1899;-60
2021/11/09 00:03:23;;;;;;;;;;;22.90;47.10;;;;;;1556794;75;791;-58
2021/11/09 00:05:28;;;;;;;;;;;22.90;47.10;;;;;;1549185;75;1083;-59
2021/11/09 00:07:37;;;;;;;;;;;23.00;47.10;;;;;;1551750;75;1754;-58
2021/11/09 00:09:54;;;;;;;;;;;23.00;47.10;;;;;;1550281;75;1603;-61
2021/11/09 00:11:36;;;;;;;;;;;22.90;47.20;;;;;;1551431;75;1454;-59
2021/11/09 00:13:38;;;;;;;;;;;23.00;47.20;;;;;;1543480;75;759;-60
2021/11/09 00:15:40;;;;;;;;;;;23.00;47.20;;;;;;1549509;75;1197;-59
2021/11/09 00:17:42;;;;;;;;;;;23.00;47.10;;;;;;1537309;75;798;-59
2021/11/09 00:19:44;;;;;;;;;;;23.00;47.20;;;;;;1547387;75;1938;-59
2021/11/09 00:21:46;;;;;;;;;;;23.00;47.20;;;;;;1538164;75;660;-60
2021/11/09 00:23:48;;;;;;;;;;;23.00;47.20;;;;;;1539665;75;787;-58
2021/11/09 00:25:50;;;;;;;;;;;23.00;47.20;;;;;;1542380;75;1180;-60
2021/11/09 00:27:52;;;;;;;;;;;23.00;47.20;;;;;;1560456;75;736;-60
2021/11/09 00:29:54;;;;;;;;;;;23.00;47.30;;;;;;1560806;75;755;-61
2021/11/09 00:31:55;;;;;;;;;;;23.00;47.20;;;;;;1545433;75;707;-59
2021/11/09 00:33:57;;;;;;;;;;;23.00;47.20;;;;;;1541400;75;730;-60
2021/11/09 00:36:00;;;;;;;;;;;23.00;47.30;;;;;;1544180;75;1101;-60
2021/11/09 00:38:03;;;;;;;;;;;23.00;47.30;;;;;;1529571;75;739;-59
2021/11/09 00:40:05;;;;;;;;;;;23.00;47.40;;;;;;1562160;75;1918;-61
2021/11/09 00:42:07;;;;;;;;;;;23.00;47.40;;;;;;1543783;75;1126;-60
2021/11/09 00:44:09;;;;;;;;;;;23.00;47.60;;;;;;1548983;75;695;-57
2021/11/09 00:46:11;;;;;;;;;;;23.00;47.60;;;;;;1573408;75;1204;-59
2021/11/09 00:48:13;;;;;;;;;;;23.00;47.60;;;;;;1541951;76;823;-61
2021/11/09 00:50:15;;;;;;;;;;;23.00;47.70;;;;;;1530238;75;823;-60
2021/11/09 00:52:18;;;;;;;;;;;23.00;47.80;;;;;;1559511;75;786;-60
2021/11/09 00:54:20;;;;;;;;;;;23.00;47.80;;;;;;1535610;75;844;-61
2021/11/09 00:56:22;;;;;;;;;;;23.00;47.80;;;;;;1540410;75;1145;-60
2021/11/09 00:58:24;;;;;;;;;;;23.00;47.90;;;;;;1527765;75;817;-61
2021/11/09 01:00:26;;;;;;;;;;;23.00;47.90;;;;;;1530675;75;1928;-59
2021/11/09 01:02:29;;;;;;;;;;;23.00;47.90;;;;;;1563742;75;800;-60
2021/11/09 01:04:31;;;;;;;;;;;23.10;47.90;;;;;;1552744;75;744;-59
2021/11/09 01:06:33;;;;;;;;;;;23.00;47.80;;;;;;1552586;75;1153;-59
2021/11/09 01:08:34;;;;;;;;;;;23.10;47.90;;;;;;1569383;75;768;-61
2021/11/09 01:10:38;;;;;;;;;;;23.10;47.90;;;;;;1565260;75;725;-61
2021/11/09 01:12:40;;;;;;;;;;;23.10;47.80;;;;;;1546894;75;697;-60
2021/11/09 01:14:43;;;;;;;;;;;23.10;47.80;;;;;;1540437;75;782;-60
2021/11/09 01:16:44;;;;;;;;;;;23.10;47.80;;;;;;1549394;75;1097;-61
2021/11/09 01:18:54;;;;;;;;;;;23.10;47.80;;;;;;1547133;75;728;-60
2021/11/09 01:20:55;;;;;;;;;;;23.10;47.80;;;;;;1540233;75;1924;-60
2021/11/09 01:22:59;;;;;;;;;;;23.10;47.80;;;;;;1567987;75;785;-60
2021/11/09 01:25:01;;;;;;;;;;;23.10;47.80;;;;;;1562688;75;1161;-61
2021/11/09 01:27:03;;;;;;;;;;;23.10;47.80;;;;;;1564098;75;830;-60
2021/11/09 01:29:06;;;;;;;;;;;23.10;47.80;;;;;;1562824;75;816;-60
2021/11/09 01:31:08;;;;;;;;;;;23.10;47.80;;;;;;1566745;75;723;-61
2021/11/09 01:33:10;;;;;;;;;;;23.10;47.80;;;;;;1551212;75;726;-61
2021/11/09 01:35:11;;;;;;;;;;;23.10;47.80;;;;;;1547632;75;1146;-61
2021/11/09 01:37:13;;;;;;;;;;;23.10;47.80;;;;;;1531198;75;738;-60
2021/11/09 01:39:15;;;;;;;;;;;23.10;47.80;;;;;;1564590;75;710;-60
2021/11/09 01:41:17;;;;;;;;;;;23.00;47.70;;;;;;1539742;75;1923;-60
2021/11/09 01:43:19;;;;;;;;;;;23.10;47.90;;;;;;1562703;75;748;-60
2021/11/09 01:45:21;;;;;;;;;;;23.00;47.80;;;;;;1539650;75;1200;-62
2021/11/09 01:47:23;;;;;;;;;;;23.00;47.90;;;;;;1549087;75;733;-62
2021/11/09 01:49:25;;;;;;;;;;;23.00;48.00;;;;;;1532208;75;812;-61
2021/11/09 01:51:27;;;;;;;;;;;23.00;48.00;;;;;;1547949;75;710;-62
2021/11/09 01:53:28;;;;;;;;;;;23.00;48.00;;;;;;1561986;75;900;-59
2021/11/09 01:55:31;;;;;;;;;;;23.00;48.10;;;;;;1548512;75;1117;-59
2021/11/09 01:57:33;;;;;;;;;;;23.00;47.90;;;;;;1535472;75;655;-58
2021/11/09 01:59:35;;;;;;;;;;;23.00;47.90;;;;;;1562394;75;725;-58
2021/11/09 02:01:37;;;;;;;;;;;23.00;47.90;;;;;;1542226;75;1922;-58
2021/11/09 02:03:40;;;;;;;;;;;23.00;48.00;;;;;;1550807;75;807;-59
2021/11/09 02:05:42;;;;;;;;;;;23.00;48.10;;;;;;1545186;75;1166;-59
2021/11/09 02:07:45;;;;;;;;;;;23.00;48.10;;;;;;1580106;75;748;-59
2021/11/09 02:09:48;;;;;;;;;;;23.00;48.00;;;;;;1565893;75;755;-58
2021/11/09 02:11:49;;;;;;;;;;;23.00;48.00;;;;;;1545885;75;806;-58
2021/11/09 02:13:51;;;;;;;;;;;23.00;48.00;;;;;;1563786;75;689;-58
2021/11/09 02:15:53;;;;;;;;;;;23.00;48.00;;;;;;1561415;75;1133;-58
2021/11/09 02:17:55;;;;;;;;;;;23.00;48.00;;;;;;1563768;75;797;-58
2021/11/09 02:19:57;;;;;;;;;;;23.00;48.00;;;;;;1540226;75;695;-59
2021/11/09 02:21:59;;;;;;;;;;;23.10;48.10;;;;;;1543387;75;1934;-59
2021/11/09 02:24:01;;;;;;;;;;;23.00;48.00;;;;;;1539034;75;761;-58
2021/11/09 02:26:04;;;;;;;;;;;23.00;48.00;;;;;;1561998;75;1180;-58
2021/11/09 02:28:06;;;;;;;;;;;23.00;48.00;;;;;;1547679;75;790;-59
2021/11/09 02:30:09;;;;;;;;;;;23.00;48.00;;;;;;1556672;75;734;-59
2021/11/09 02:32:11;;;;;;;;;;;23.00;47.90;;;;;;1561656;75;704;-59
2021/11/09 02:34:13;;;;;;;;;;;23.00;47.90;;;;;;1581423;72;218116;-67
2021/11/09 02:36:17;;;;;;;;;;;23.00;47.90;;;;;;1599588;73;711;-70
2021/11/09 02:38:19;;;;;;;;;;;23.00;47.90;;;;;;1591271;74;692;-67
2021/11/09 02:40:21;;;;;;;;;;;23.00;48.00;;;;;;1576418;74;776;-67
2021/11/09 02:42:23;;;;;;;;;;;23.00;48.10;;;;;;1598544;73;1893;-66
2021/11/09 02:44:27;;;;;;;;;;;23.00;48.10;;;;;;1574472;75;727;-69
2021/11/09 02:46:36;;;;;;;;;;;23.00;48.10;;;;;;1576746;74;1869;-67
2021/11/09 02:48:39;;;;;;;;;;;23.00;48.10;;;;;;1560066;74;2215;-68
2021/11/09 02:50:39;;;;;;;;;;;23.00;48.10;;;;;;1567587;74;1624;-68
2021/11/09 02:52:48;;;;;;;;;;;23.00;48.10;;;;;;1569726;74;1184;-67
2021/11/09 02:54:46;;;;;;;;;;;23.00;48.10;;;;;;1554555;74;1659;-67
2021/11/09 02:56:58;;;;;;;;;;;23.00;48.10;;;;;;1565399;74;1661;-67
2021/11/09 03:03:32;;;;;;;;;;;23.00;48.20;;;;;;1562492;74;1174;-68
2021/11/09 03:05:30;;;;;;;;;;;23.00;48.10;;;;;;1568206;74;1619;-68
2021/11/09 03:09:41;;;;;;;;;;;23.00;48.10;;;;;;1550884;74;887;-68
2021/11/09 03:11:39;;;;;;;;;;;23.10;48.30;;;;;;1562927;75;1645;-70
2021/11/09 03:13:42;;;;;;;;;;;23.00;48.20;;;;;;1563872;75;1497;-72
2021/11/09 03:15:44;;;;;;;;;;;23.00;48.30;;;;;;1566391;74;711;-70
2021/11/09 03:17:53;;;;;;;;;;;23.00;48.30;;;;;;1559246;75;734;-71
2021/11/09 03:19:53;;;;;;;;;;;23.00;48.30;;;;;;1570337;74;1448;-72
2021/11/09 03:40:35;;;;;;;;;;;23.00;48.40;;;;;;1559369;74;1663;-69
2021/11/09 03:45:02;;;;;;;;;;;23.00;48.40;;;;;;1569441;75;1657;-72
2021/11/09 03:47:03;;;;;;;;;;;23.00;48.40;;;;;;1580945;74;1633;-70
2021/11/09 03:49:07;;;;;;;;;;;23.00;48.40;;;;;;1574090;75;774;-70
2021/11/09 03:51:09;;;;;;;;;;;23.00;48.40;;;;;;1559653;74;1651;-71
2021/11/09 03:53:16;;;;;;;;;;;23.00;48.40;;;;;;1563854;74;1124;-71
2021/11/09 03:55:22;;;;;;;;;;;23.00;48.40;;;;;;1554835;75;1494;-71
2021/11/09 03:57:30;;;;;;;;;;;23.00;48.40;;;;;;1585768;74;1720;-71
2021/11/09 03:59:44;;;;;;;;;;;23.00;48.50;;;;;;1571835;74;1659;-71
2021/11/09 04:02:00;;;;;;;;;;;23.00;48.60;;;;;;1574572;75;1942;-69
2021/11/09 04:03:59;;;;;;;;;;;23.00;48.60;;;;;;1567519;74;1644;-71
2021/11/09 04:05:53;;;;;;;;;;;23.00;48.60;;;;;;1566814;74;1622;-73
2021/11/09 04:08:08;;;;;;;;;;;23.00;48.70;;;;;;1553535;74;1750;-71
2021/11/09 04:10:11;;;;;;;;;;;23.10;48.80;;;;;;1572593;74;1678;-71
2021/11/09 04:14:36;;;;;;;;;;;23.10;48.70;;;;;;1543239;74;1109;-73
2021/11/09 04:18:59;;;;;;;;;;;23.20;48.50;;;;;;1567319;74;640;-72
2021/11/09 04:21:16;;;;;;;;;;;23.30;48.40;;;;;;1571581;74;1615;-73
2021/11/09 04:25:45;;;;;;;;;;;23.40;48.20;;;;;;1557069;74;1602;-67
2021/11/09 04:27:44;;;;;;;;;;;23.40;48.20;;;;;;1576951;74;1808;-68
2021/11/09 04:30:02;;;;;;;;;;;23.30;48.20;;;;;;1566908;74;1624;-71
2021/11/09 04:32:06;;;;;;;;;;;23.30;48.30;;;;;;1561673;74;1693;-71
2021/11/09 05:01:51;;;;;;;;;;;23.70;47.80;;;;;;1557850;75;1930;-74
2021/11/09 05:10:25;;;;;;;;;;;23.70;47.60;;;;;;1571724;74;861;-72
2021/11/09 05:12:26;;;;;;;;;;;23.60;47.50;;;;;;1567531;75;1641;-72
2021/11/09 05:14:30;;;;;;;;;;;23.70;47.60;;;;;;1569340;74;690;-72
2021/11/09 05:16:31;;;;;;;;;;;23.70;47.40;;;;;;1573269;74;710;-72
2021/11/09 05:18:33;;;;;;;;;;;23.80;47.40;;;;;;1567298;74;778;-72
2021/11/09 05:20:35;;;;;;;;;;;23.70;47.40;;;;;;1581120;74;790;-71
2021/11/09 05:22:37;;;;;;;;;;;23.70;47.40;;;;;;1569667;74;1934;-72
2021/11/09 05:24:42;;;;;;;;;;;23.70;47.40;;;;;;1565618;74;725;-73
2021/11/09 05:26:43;;;;;;;;;;;23.80;47.40;;;;;;1568870;74;1657;-69
2021/11/09 05:28:45;;;;;;;;;;;23.80;47.30;;;;;;1564420;74;714;-71
2021/11/09 05:30:49;;;;;;;;;;;23.80;47.30;;;;;;1586642;74;749;-74
2021/11/09 05:32:53;;;;;;;;;;;23.70;47.30;;;;;;1577670;74;1167;-71
2021/11/09 05:34:55;;;;;;;;;;;23.70;47.40;;;;;;1564149;74;768;-69
2021/11/09 05:36:57;;;;;;;;;;;23.70;47.40;;;;;;1573907;74;675;-71
2021/11/09 05:39:08;;;;;;;;;;;23.70;47.50;;;;;;1592500;74;768;-72
2021/11/09 05:41:08;;;;;;;;;;;23.70;47.50;;;;;;1567345;74;1537;-72
2021/11/09 05:43:06;;;;;;;;;;;23.70;47.50;;;;;;1584096;74;1911;-72
2021/11/09 05:45:17;;;;;;;;;;;23.60;47.30;;;;;;1583428;74;729;-74
2021/11/09 05:47:12;;;;;;;;;;;23.60;47.30;;;;;;1567935;74;1480;-71
2021/11/09 05:49:14;;;;;;;;;;;23.60;47.50;;;;;;1569084;74;757;-71
2021/11/09 05:51:16;;;;;;;;;;;23.60;47.60;;;;;;1542834;75;727;-75
2021/11/09 05:53:18;;;;;;;;;;;23.60;47.70;;;;;;1580166;74;1135;-73
2021/11/09 05:55:20;;;;;;;;;;;23.60;47.80;;;;;;1582144;74;774;-73
2021/11/09 05:57:22;;;;;;;;;;;23.60;47.80;;;;;;1557509;75;823;-70
2021/11/09 05:59:24;;;;;;;;;;;23.60;47.70;;;;;;1568018;74;713;-73
2021/11/09 06:01:25;;;;;;;;;;;23.70;47.80;;;;;;1563597;74;660;-72
2021/11/09 06:03:27;;;;;;;;;;;23.70;47.70;;;;;;1559409;74;1932;-77
2021/11/09 06:05:29;;;;;;;;;;;23.50;47.90;;;;;;1574382;74;766;-72
2021/11/09 06:07:31;;;;;;;;;;;23.60;47.80;;;;;;1570251;74;828;-72
2021/11/09 06:09:33;;;;;;;;;;;23.60;47.70;;;;;;1568622;74;750;-72
2021/11/09 06:11:35;;;;;;;;;;;23.50;47.70;;;;;;1555331;74;741;-72
2021/11/09 06:13:37;;;;;;;;;;;23.50;47.80;;;;;;1575994;74;1119;-72
2021/11/09 06:15:39;;;;;;;;;;;23.40;47.60;;;;;;1570830;74;816;-72
2021/11/09 06:17:41;;;;;;;;;;;23.40;47.70;;;;;;1558848;75;726;-71
2021/11/09 06:19:42;;;;;;;;;;;23.40;47.70;;;;;;1584116;74;721;-70
2021/11/09 06:21:44;;;;;;;;;;;23.40;47.80;;;;;;1565325;74;1946;-71
2021/11/09 06:23:46;;;;;;;;;;;23.30;47.90;;;;;;1569610;75;1131;-71
2021/11/09 06:25:49;;;;;;;;;;;23.30;48.10;;;;;;1577193;74;731;-72
2021/11/09 06:27:51;;;;;;;;;;;23.30;48.20;;;;;;1586816;74;668;-71
2021/11/09 06:29:53;;;;;;;;;;;23.30;48.10;;;;;;1570595;74;748;-71
2021/11/09 06:31:56;;;;;;;;;;;23.30;48.10;;;;;;1562812;74;812;-71
2021/11/09 06:33:58;;;;;;;;;;;23.20;48.10;;;;;;1574044;75;1196;-71
2021/11/09 06:36:00;;;;;;;;;;;23.30;48.00;;;;;;1577629;75;781;-71
2021/11/09 06:38:02;;;;;;;;;;;23.20;47.90;;;;;;1582554;74;663;-72
2021/11/09 06:40:04;;;;;;;;;;;23.20;47.90;;;;;;1583658;74;813;-73
2021/11/09 06:42:06;;;;;;;;;;;23.20;47.90;;;;;;1564612;74;1998;-74
2021/11/09 06:44:08;;;;;;;;;;;23.20;47.90;;;;;;1576608;74;1145;-74
2021/11/09 06:46:10;;;;;;;;;;;23.20;47.90;;;;;;1574447;75;746;-74
2021/11/09 06:48:12;;;;;;;;;;;23.20;47.80;;;;;;1569922;74;750;-73
2021/11/09 06:50:14;;;;;;;;;;;23.20;47.80;;;;;;1579868;74;721;-75
2021/11/09 06:52:15;;;;;;;;;;;23.20;47.80;;;;;;1556988;74;716;-70
2021/11/09 06:54:17;;;;;;;;;;;23.10;47.80;;;;;;1571192;74;1148;-71
2021/11/09 06:56:19;;;;;;;;;;;23.10;47.70;;;;;;1585076;74;714;-71
2021/11/09 06:58:21;;;;;;;;;;;23.20;47.70;;;;;;1569867;75;770;-72
2021/11/09 07:00:23;;;;;;;;;;;23.10;47.70;;;;;;1578745;74;804;-74
2021/11/09 07:02:27;;;;;;;;;;;23.10;47.60;;;;;;1566039;74;1926;-73
2021/11/09 07:04:29;;;;;;;;;;;23.20;47.70;;;;;;1568997;75;727;-70
2021/11/09 07:06:31;;;;;;;;;;;23.10;47.60;;;;;;1584783;74;756;-71
2021/11/09 07:08:33;;;;;;;;;;;23.10;47.60;;;;;;1564542;74;786;-71
2021/11/09 07:10:35;;;;;;;;;;;23.10;47.60;;;;;;1568669;75;768;-72
2021/11/09 07:12:37;;;;;;;;;;;23.10;47.60;;;;;;1564367;74;1132;-72
2021/11/09 07:14:39;;;;;;;;;;;23.10;47.60;;;;;;1547529;74;710;-72
2021/11/09 07:16:44;;;;;;;;;;;23.10;47.50;;;;;;1540294;76;719;-72
2021/11/09 07:18:44;;;;;;;;;;;23.10;47.60;;;;;;1540451;75;1138;-74
2021/11/09 07:20:46;;;;;;;;;;;23.10;47.50;;;;;;1559158;74;737;-75
2021/11/09 07:22:48;;;;;;;;;;;23.10;47.50;;;;;;1562910;75;1969;-72
2021/11/09 07:24:50;;;;;;;;;;;23.10;47.50;;;;;;1559892;75;721;-72
2021/11/09 07:26:52;;;;;;;;;;;23.10;47.40;;;;;;1563827;75;784;-72
2021/11/09 07:28:55;;;;;;;;;;;23.10;47.40;;;;;;1562714;74;729;-72
2021/11/09 07:30:58;;;;;;;;;;;23.10;47.30;;;;;;1566994;75;716;-75
2021/11/09 07:33:01;;;;;;;;;;;23.10;47.40;;;;;;1560144;75;1179;-72
2021/11/09 07:35:05;;;;;;;;;;;23.10;47.30;;;;;;1566183;74;776;-75
2021/11/09 07:37:06;;;;;;;;;;;23.10;47.30;;;;;;1561283;74;1587;-72
2021/11/09 07:39:08;;;;;;;;;;;23.10;47.30;;;;;;1549170;75;707;-73
2021/11/09 07:41:10;;;;;;;;;;;23.10;47.30;;;;;;1551077;75;641;-72
2021/11/09 07:43:12;;;;;;;;;;;23.10;47.30;;;;;;1552652;75;1945;-72
2021/11/09 07:45:18;;;;;;;;;;;23.10;47.30;;;;;;1554536;74;906;-76
2021/11/09 07:47:20;;;;;;;;;;;23.10;47.20;;;;;;1545274;75;752;-76
2021/11/09 07:49:22;;;;;;;;;;;23.10;47.30;;;;;;1551546;75;727;-72
2021/11/09 07:51:24;;;;;;;;;;;23.10;47.30;;;;;;1554489;74;708;-74
2021/11/09 07:53:30;;;;;;;;;;;23.10;47.20;;;;;;1554775;74;1156;-72
2021/11/09 07:55:33;;;;;;;;;;;23.10;47.20;;;;;;1551565;75;1104;-72
2021/11/09 07:57:45;;;;;;;;;;;23.00;47.10;;;;;;1550921;74;988;-73
2021/11/09 07:59:59;;;;;;;;;;;23.10;47.20;;;;;;1551887;75;1904;-72
2021/11/09 08:06:25;;;;;;;;;;;23.10;47.10;;;;;;1557896;74;857;-72
2021/11/09 08:08:32;;;;;;;;;;;23.10;47.10;;;;;;1549738;75;1680;-74
2021/11/09 08:10:27;;;;;;;;;;;23.10;47.10;;;;;;1547863;74;1437;-72
2021/11/09 08:12:29;;;;;;;;;;;23.10;47.10;;;;;;1555183;74;1145;-74
2021/11/09 08:14:31;;;;;;;;;;;23.00;46.90;;;;;;1567163;74;1266;-72
2021/11/09 08:16:32;;;;;;;;;;;23.10;47.10;;;;;;1579294;74;793;-73
2021/11/09 08:18:34;;;;;;;;;;;23.00;46.90;;;;;;1576849;74;713;-72
2021/11/09 08:20:39;;;;;;;;;;;23.10;47.00;;;;;;1552679;74;670;-72
2021/11/09 08:22:41;;;;;;;;;;;23.10;47.10;;;;;;1560872;74;1920;-72
2021/11/09 08:24:43;;;;;;;;;;;23.00;46.90;;;;;;1567650;74;784;-71
2021/11/09 08:26:46;;;;;;;;;;;23.10;47.00;;;;;;1574556;74;840;-72
2021/11/09 08:28:48;;;;;;;;;;;23.00;46.90;;;;;;1580435;74;708;-72
2021/11/09 08:30:53;;;;;;;;;;;23.10;47.00;;;;;;1571660;74;793;-73
2021/11/09 08:34:57;;;;;;;;;;;23.00;47.00;;;;;;1592851;74;561;-71
2021/11/09 08:36:59;;;;;;;;;;;23.00;47.00;;;;;;1595405;74;689;-71
2021/11/09 08:39:04;;;;;;;;;;;23.10;47.00;;;;;;1592256;74;727;-71
2021/11/09 08:41:06;;;;;;;;;;;23.00;46.90;;;;;;1594369;74;850;-71
2021/11/09 08:43:09;;;;;;;;;;;23.00;46.90;;;;;;1593931;74;1907;-71
2021/11/09 08:47:34;;;;;;;;;;;23.10;47.10;;;;;;1491500;78;1194;-71
2021/11/09 08:49:34;;;;;;;;;;;23.00;46.90;;;;;;1545539;74;1682;-72
2021/11/09 08:51:36;;;;;;;;;;;23.00;46.90;;;;;;1556121;76;918;-70
2021/11/09 08:53:50;;;;;;;;;;;23.10;46.90;;;;;;1550829;76;1150;-71
2021/11/09 08:56:16;;;;;;;;;;;23.10;46.80;;;;;;1527489;77;1459;-72
2021/11/09 09:04:46;;;;;;;;;;;23.30;46.30;;;;;;1586584;73;1131;-71
2021/11/09 09:06:50;;;;;;;;;;;23.40;46.20;;;;;;1547469;76;780;-71
2021/11/09 09:08:52;;;;;;;;;;;23.50;46.20;;;;;;1546554;75;1850;-71
2021/11/09 09:10:54;;;;;;;;;;;23.50;46.20;;;;;;1577969;75;843;-71
2021/11/09 09:12:56;;;;;;;;;;;23.50;46.00;;;;;;1576025;75;1152;-71
2021/11/09 09:14:58;;;;;;;;;;;23.50;45.80;;;;;;1570784;75;799;-71
2021/11/09 09:17:02;;;;;;;;;;;23.60;45.70;;;;;;1579222;75;661;-72
2021/11/09 09:19:04;;;;;;;;;;;23.60;45.70;;;;;;1534251;75;1660;-73
2021/11/09 09:21:12;;;;;;;;;;;23.50;44.20;;;;;;1553383;75;730;-74
2021/11/09 09:23:18;;;;;;;;;;;23.40;44.10;;;;;;1579813;75;1928;-69
2021/11/09 09:54:06;;;;;;;;;;;22.50;38.70;;;;;;1559134;76;1606;-72
2021/11/09 09:55:54;;;;;;;;;;;22.50;38.80;;;;;;1534807;76;1503;-73
2021/11/09 09:57:28;;;;;;;;;;;22.40;38.40;;;;;;1544029;76;1386;-75
2021/11/09 09:59:31;;;;;;;;;;;22.40;38.30;;;;;;1560561;75;732;-73
2021/11/09 10:01:33;;;;;;;;;;;22.40;38.30;;;;;;1565395;76;751;-73
2021/11/09 10:03:39;;;;;;;;;;;22.30;38.20;;;;;;1560240;76;1950;-73
2021/11/09 10:05:42;;;;;;;;;;;22.30;38.40;;;;;;1560234;75;770;-74
2021/11/09 10:07:51;;;;;;;;;;;22.30;38.20;;;;;;1560010;75;709;-73
2021/11/09 10:09:49;;;;;;;;;;;22.30;37.90;;;;;;1563056;75;1626;-74
2021/11/09 10:11:51;;;;;;;;;;;22.30;38.00;;;;;;1562347;75;688;-73
2021/11/09 10:13:53;;;;;;;;;;;22.20;37.50;;;;;;1562718;75;1171;-74
2021/11/09 10:15:55;;;;;;;;;;;22.30;35.40;;;;;;1560135;75;783;-74
2021/11/09 10:18:00;;;;;;;;;;;22.10;36.30;;;;;;1562142;75;789;-74
2021/11/09 10:20:03;;;;;;;;;;;22.10;36.20;;;;;;1559848;75;1658;-74
2021/11/09 10:22:22;;;;;;;;;;;22.10;36.40;;;;;;1555797;75;1787;-72
2021/11/09 10:24:27;;;;;;;;;;;22.10;35.50;;;;;;1563025;75;1952;-74
2021/11/09 10:26:29;;;;;;;;;;;22.10;36.70;;;;;;1558891;76;920;-73
2021/11/09 10:28:31;;;;;;;;;;;22.10;36.20;;;;;;1530666;76;1343;-73
2021/11/09 10:30:37;;;;;;;;;;;22.00;35.90;;;;;;1562640;75;715;-73
2021/11/09 10:32:39;;;;;;;;;;;21.90;34.90;;;;;;1561129;75;1810;-74
2021/11/09 10:34:41;;;;;;;;;;;21.90;35.40;;;;;;1559728;75;1224;-73
2021/11/09 10:36:43;;;;;;;;;;;21.80;35.00;;;;;;1562618;76;758;-73
2021/11/09 10:38:46;;;;;;;;;;;21.80;35.20;;;;;;1560051;75;803;-73
2021/11/09 10:40:49;;;;;;;;;;;21.70;35.30;;;;;;1558458;76;715;-72
2021/11/09 10:42:52;;;;;;;;;;;21.80;35.20;;;;;;1562492;75;1151;-72
2021/11/09 10:44:57;;;;;;;;;;;21.90;35.80;;;;;;1562580;76;1946;-73
2021/11/09 10:47:18;;;;;;;;;;;21.80;34.70;;;;;;1565122;76;671;-68
2021/11/09 10:49:20;;;;;;;;;;;21.60;34.20;;;;;;1561205;75;706;-74
2021/11/09 10:51:23;;;;;;;;;;;21.60;34.60;;;;;;1532937;77;1423;-73
2021/11/09 10:55:35;;;;;;;;;;;21.60;37.80;;;;;;1561528;75;1041;-73
2021/11/09 10:57:38;;;;;;;;;;;21.60;37.50;;;;;;1561730;75;1705;-73
2021/11/09 11:00:21;;;;;;;;;;;21.70;37.80;;;;;;1562709;75;1020;-72
2021/11/09 11:04:13;;;;;;;;;;;21.80;37.40;;;;;;1565464;76;1931;-74
2021/11/09 11:06:16;;;;;;;;;;;21.80;37.30;;;;;;1557605;75;696;-74
2021/11/09 11:08:18;;;;;;;;;;;21.90;37.50;;;;;;1564926;75;706;-74
2021/11/09 11:10:28;;;;;;;;;;;22.00;37.50;;;;;;1550016;76;775;-74
2021/11/09 11:12:30;;;;;;;;;;;22.10;37.80;;;;;;1551624;76;766;-73
2021/11/09 11:14:32;;;;;;;;;;;22.10;37.70;;;;;;1561558;76;1106;-74
2021/11/09 11:16:42;;;;;;;;;;;22.10;37.80;;;;;;1551685;76;705;-73
2021/11/09 11:18:45;;;;;;;;;;;22.10;35.00;;;;;;1551566;75;758;-75
2021/11/09 11:20:47;;;;;;;;;;;22.10;35.20;;;;;;1556600;75;745;-74
2021/11/09 11:22:49;;;;;;;;;;;22.00;35.60;;;;;;1561003;75;1165;-73
2021/11/09 11:24:51;;;;;;;;;;;22.00;36.50;;;;;;1556389;75;1951;-74
2021/11/09 11:26:54;;;;;;;;;;;22.00;36.80;;;;;;1552195;75;852;-70
2021/11/09 11:28:56;;;;;;;;;;;21.70;31.50;;;;;;1542728;76;712;-74
2021/11/09 11:30:59;;;;;;;;;;;21.40;35.00;;;;;;1551426;76;719;-74
2021/11/09 11:33:00;;;;;;;;;;;21.50;36.50;;;;;;1560126;75;1129;-73
2021/11/09 11:35:02;;;;;;;;;;;21.50;36.60;;;;;;1525361;77;1217;-74
2021/11/09 11:37:04;;;;;;;;;;;21.50;36.50;;;;;;1562877;76;798;-74
2021/11/09 11:39:07;;;;;;;;;;;21.50;36.90;;;;;;1563178;75;740;-72
2021/11/09 11:41:09;;;;;;;;;;;21.50;36.50;;;;;;1560658;76;851;-68
2021/11/09 11:43:11;;;;;;;;;;;21.60;36.50;;;;;;1560451;75;1150;-71
2021/11/09 11:45:13;;;;;;;;;;;21.60;36.00;;;;;;1560862;75;1942;-69
2021/11/09 11:47:21;;;;;;;;;;;21.60;34.20;;;;;;1562751;75;778;-69
2021/11/09 11:49:25;;;;;;;;;;;21.40;33.30;;;;;;1559684;76;1569;-69
2021/11/09 11:51:27;;;;;;;;;;;21.10;30.60;;;;;;1559791;75;1599;-69
2021/11/09 11:53:41;;;;;;;;;;;20.80;31.10;;;;;;1560392;75;1093;-70
2021/11/09 11:55:43;;;;;;;;;;;20.60;31.30;;;;;;1562724;75;903;-69
2021/11/09 11:57:47;;;;;;;;;;;20.30;31.50;;;;;;1529510;76;1307;-69
2021/11/09 11:59:49;;;;;;;;;;;20.20;33.90;;;;;;1561454;75;1715;-69
2021/11/09 12:01:54;;;;;;;;;;;20.20;34.20;;;;;;1562803;75;792;-69
2021/11/09 12:03:56;;;;;;;;;;;20.10;33.90;;;;;;1562892;75;1965;-69
2021/11/09 12:06:01;;;;;;;;;;;20.10;34.80;;;;;;1563001;75;764;-70
2021/11/09 12:08:03;;;;;;;;;;;20.20;35.10;;;;;;1562937;76;960;-69
2021/11/09 12:10:06;;;;;;;;;;;20.40;35.30;;;;;;1562690;75;892;-69
2021/11/09 12:12:21;;;;;;;;;;;20.40;35.80;;;;;;1565190;75;716;-69
2021/11/09 12:14:24;;;;;;;;;;;20.50;36.10;;;;;;1560974;75;1133;-69
2021/11/09 12:16:28;;;;;;;;;;;20.50;37.80;;;;;;1560931;75;723;-69
2021/11/09 12:18:34;;;;;;;;;;;20.60;37.30;;;;;;1555572;75;1522;-68
2021/11/09 12:20:42;;;;;;;;;;;20.70;37.50;;;;;;1565147;75;696;-70
2021/11/09 12:22:45;;;;;;;;;;;20.80;36.80;;;;;;1562866;75;771;-69
2021/11/09 12:24:57;;;;;;;;;;;20.80;36.00;;;;;;1556715;76;1942;-69
2021/11/09 12:26:58;;;;;;;;;;;20.80;36.20;;;;;;1560967;76;1493;-68
2021/11/09 12:29:00;;;;;;;;;;;20.90;35.20;;;;;;1563009;76;803;-69
2021/11/09 12:31:13;;;;;;;;;;;20.70;35.50;;;;;;1563006;75;745;-69
2021/11/09 12:33:16;;;;;;;;;;;20.80;35.50;;;;;;1564645;75;1932;-68
2021/11/09 12:35:19;;;;;;;;;;;20.80;35.40;;;;;;1562392;76;780;-69
2021/11/09 12:37:21;;;;;;;;;;;20.80;35.50;;;;;;1562133;75;785;-66
2021/11/09 12:39:23;;;;;;;;;;;20.80;34.50;;;;;;1562825;76;752;-69
2021/11/09 12:41:27;;;;;;;;;;;20.80;35.50;;;;;;1560765;75;796;-69
2021/11/09 12:43:31;;;;;;;;;;;20.90;35.10;;;;;;1562578;75;1951;-69
2021/11/09 12:45:32;;;;;;;;;;;20.80;34.60;;;;;;1560690;75;1942;-69
2021/11/09 12:47:34;;;;;;;;;;;20.80;34.30;;;;;;1560674;75;722;-69
2021/11/09 12:49:38;;;;;;;;;;;20.90;34.80;;;;;;1562632;75;779;-70
2021/11/09 12:51:44;;;;;;;;;;;21.00;34.20;;;;;;1560413;75;1689;-69
2021/11/09 12:53:47;;;;;;;;;;;20.90;33.90;;;;;;1556112;76;1124;-68
2021/11/09 12:55:56;;;;;;;;;;;20.90;34.60;;;;;;1560347;75;772;-69
2021/11/09 12:57:59;;;;;;;;;;;21.00;34.70;;;;;;1560541;76;763;-69
2021/11/09 13:00:09;;;;;;;;;;;21.00;34.80;;;;;;1542070;76;1051;-69
2021/11/09 13:02:26;;;;;;;;;;;21.00;34.40;;;;;;1560189;75;1653;-75
2021/11/09 13:06:34;;;;;;;;;;;21.10;35.10;;;;;;1558535;76;910;-68
2021/11/09 13:08:41;;;;;;;;;;;21.10;35.30;;;;;;1527712;76;1625;-69
2021/11/09 13:10:38;;;;;;;;;;;21.10;35.00;;;;;;1553738;76;1610;-69
2021/11/09 13:12:37;;;;;;;;;;;21.20;34.70;;;;;;1564076;76;1716;-68
2021/11/09 13:14:49;;;;;;;;;;;21.20;34.90;;;;;;1565431;76;1113;-69
2021/11/09 13:16:51;;;;;;;;;;;21.20;35.20;;;;;;1556672;76;713;-69
2021/11/09 13:18:55;;;;;;;;;;;21.20;35.00;;;;;;1542708;76;721;-70
2021/11/09 13:21:05;;;;;;;;;;;21.20;35.10;;;;;;1560372;76;1911;-69
2021/11/09 13:23:01;;;;;;;;;;;21.30;35.60;;;;;;1554276;76;1660;-69
2021/11/09 13:25:09;;;;;;;;;;;21.30;35.90;;;;;;1553426;76;1950;-70
2021/11/09 13:27:11;;;;;;;;;;;21.30;35.80;;;;;;1562541;76;806;-70
2021/11/09 13:29:13;;;;;;;;;;;21.30;35.00;;;;;;1554164;76;752;-69
2021/11/09 13:31:15;;;;;;;;;;;21.40;35.00;;;;;;1545319;76;707;-66
2021/11/09 13:33:17;;;;;;;;;;;21.30;34.80;;;;;;1553657;76;1095;-69
2021/11/09 13:35:23;;;;;;;;;;;21.40;34.90;;;;;;1556435;76;684;-69
2021/11/09 13:37:25;;;;;;;;;;;21.40;34.50;;;;;;1562930;76;751;-70
2021/11/09 13:39:27;;;;;;;;;;;21.40;34.50;;;;;;1544073;76;794;-69
2021/11/09 13:41:30;;;;;;;;;;;21.40;34.50;;;;;;1565052;76;833;-69
2021/11/09 13:43:34;;;;;;;;;;;21.40;34.40;;;;;;1551618;76;1158;-67
2021/11/09 13:45:37;;;;;;;;;;;21.40;34.60;;;;;;1555129;76;1949;-69
2021/11/09 13:47:39;;;;;;;;;;;21.50;35.00;;;;;;1551311;76;746;-71
2021/11/09 13:49:40;;;;;;;;;;;21.50;34.00;;;;;;1551475;76;766;-71
2021/11/09 13:51:50;;;;;;;;;;;21.50;34.80;;;;;;1562146;76;681;-71
2021/11/09 13:53:58;;;;;;;;;;;21.50;34.90;;;;;;1552516;76;1183;-72
2021/11/09 13:56:00;;;;;;;;;;;21.60;35.00;;;;;;1550931;76;1802;-72
2021/11/09 13:58:02;;;;;;;;;;;21.50;34.70;;;;;;1552913;76;736;-72
2021/11/09 14:00:24;;;;;;;;;;;21.50;34.80;;;;;;1565175;76;795;-73
2021/11/09 14:02:36;;;;;;;;;;;21.50;34.80;;;;;;1552783;76;726;-73
2021/11/09 14:18:23;;;;;;;;;;;21.50;35.00;;;;;;1556529;76;872;-70
2021/11/09 14:20:25;;;;;;;;;;;21.50;34.70;;;;;;1551195;76;741;-72
2021/11/09 14:22:28;;;;;;;;;;;21.50;34.90;;;;;;1555464;76;779;-73
2021/11/09 14:24:30;;;;;;;;;;;21.50;35.20;;;;;;1562457;76;1940;-71
2021/11/09 14:26:32;;;;;;;;;;;21.50;35.10;;;;;;1561456;76;723;-72
2021/11/09 14:28:34;;;;;;;;;;;21.40;34.70;;;;;;1551673;76;728;-72